Time;durP1;ratioP1;P1;durP2;ratioP2;P2;SDS_P1;SDS_P2;PMS_P1;PMS_P2;Temp;Humidity;BMP_temperature;BMP_pressure;BME280_temperature;BME280_humidity;BME280_pressure;Samples;Min_cycle;Max_cycle;Signal;HPM_P1;HPM_P2
2022/01/15 00:02:09;;;;;;;8.80;3.67;;;;;;;-0.26;65.99;99193.84;5096824;28;20036;-71
2022/01/15 00:04:34;;;;;;;2.20;1.30;;;;;;;-0.41;66.12;99175.88;5096128;28;20032;-73
2022/01/15 00:07:00;;;;;;;1.60;1.30;;;;;;;-0.22;66.25;99206.53;5097281;28;20311;-71
2022/01/15 00:09:26;;;;;;;3.00;1.30;;;;;;;-0.22;65.67;99226.63;5096575;28;20032;-72
2022/01/15 00:11:52;;;;;;;1.70;1.60;;;;;;;-0.19;65.55;99234.22;5079978;28;20407;-72
2022/01/15 00:14:34;;;;;;;1.90;1.63;;;;;;;-0.21;65.55;99241.38;5098112;28;20475;-72
2022/01/15 00:17:08;;;;;;;1.77;1.53;;;;;;;-0.47;65.64;99207.81;5097930;28;20277;-70
2022/01/15 00:19:41;;;;;;;2.57;1.43;;;;;;;-0.14;65.76;99255.59;5098772;28;20361;-71
2022/01/15 00:22:18;;;;;;;1.40;1.30;;;;;;;-0.14;65.77;99261.66;5099324;28;20273;-69
2022/01/15 00:24:45;;;;;;;2.77;1.20;;;;;;;-0.12;65.58;99269.38;5097412;28;20298;-73
2022/01/15 00:27:12;;;;;;;2.70;1.40;;;;;;;-0.17;66.09;99258.47;5097391;28;20266;-72
2022/01/15 00:29:38;;;;;;;1.40;1.30;;;;;;;-0.19;65.54;99257.78;5097970;28;20258;-70
2022/01/15 00:32:06;;;;;;;1.90;1.23;;;;;;;-0.11;64.72;99273.63;5098028;28;20297;-71
2022/01/15 00:34:31;;;;;;;4.40;4.00;;;;;;;-0.14;65.13;99277.34;5098717;28;20289;-73
2022/01/15 00:36:57;;;;;;;4.70;4.30;;;;;;;-0.06;65.81;99290.59;5098153;28;20648;-71
2022/01/15 00:39:25;;;;;;;2.07;1.97;;;;;;;-0.03;65.44;99284.28;5097761;28;20125;-70
2022/01/15 00:41:50;;;;;;;1.40;1.30;;;;;;;-0.09;64.86;99284.81;5099450;28;20274;-73
2022/01/15 00:44:16;;;;;;;1.40;1.30;;;;;;;0.00;64.57;99299.75;5099980;28;20734;-71
2022/01/15 00:46:43;;;;;;;1.10;1.00;;;;;;;-0.18;64.95;99285.59;5097963;28;20040;-72
2022/01/15 00:49:09;;;;;;;1.63;1.53;;;;;;;-0.18;65.06;99285.59;5099307;28;20273;-69
2022/01/15 00:51:35;;;;;;;2.73;1.60;;;;;;;-0.13;64.75;99301.72;5101903;28;20316;-69
2022/01/15 00:54:01;;;;;;;1.90;1.27;;;;;;;-0.15;65.12;99299.25;5102311;28;20603;-69
2022/01/15 00:56:26;;;;;;;1.57;1.40;;;;;;;-0.15;65.54;99304.47;5081023;28;20273;-72
2022/01/15 00:58:53;;;;;;;2.90;1.20;;;;;;;-0.14;65.52;99321.00;5099509;28;20512;-70
2022/01/15 01:01:20;;;;;;;2.00;1.20;;;;;;;-0.16;65.62;99325.53;5080381;28;20274;-72
2022/01/15 01:03:48;;;;;;;1.50;1.40;;;;;;;-0.19;65.01;99320.56;5097702;28;20637;-70
2022/01/15 01:06:14;;;;;;;1.80;1.40;;;;;;;-0.18;65.72;99317.00;5096789;28;20294;-71
2022/01/15 01:08:39;;;;;;;3.37;1.27;;;;;;;-0.09;65.19;99342.38;5099429;28;20251;-73
2022/01/15 01:11:12;;;;;;;1.97;1.20;;;;;;;-0.07;65.43;99356.16;5082412;28;20290;-72
2022/01/15 01:20:03;;;;;;;1.73;1.47;;;;;;;-0.06;65.17;99352.56;5082923;28;20038;-74
2022/01/15 01:24:27;;;;;;;1.60;1.50;;;;;;;-0.09;65.32;99363.31;5097072;28;20365;-70
2022/01/15 01:32:07;;;;;;;1.87;1.37;;;;;;;-0.04;65.03;99388.13;5097433;28;20131;-75
2022/01/15 01:34:39;;;;;;;1.27;1.13;;;;;;;-0.05;65.84;99389.09;5097324;28;20266;-73
2022/01/15 01:37:32;;;;;;;2.27;2.00;;;;;;;-0.13;66.06;99381.06;5096613;28;20384;-70
2022/01/15 01:40:17;;;;;;;3.73;1.30;;;;;;;-0.02;65.56;99408.94;5096241;28;20781;-68
2022/01/15 01:43:03;;;;;;;1.17;1.10;;;;;;;-0.01;65.76;99400.94;5096657;28;20340;-73
2022/01/15 01:45:29;;;;;;;1.30;1.13;;;;;;;0.01;65.16;99406.09;5098015;28;20258;-69
2022/01/15 01:47:58;;;;;;;1.33;1.20;;;;;;;0.00;65.77;99412.28;5099885;28;20674;-69
2022/01/15 01:50:26;;;;;;;2.45;1.00;;;;;;;-0.06;64.76;99424.06;5098026;28;20039;-71
2022/01/15 01:52:58;;;;;;;3.17;1.30;;;;;;;-0.11;65.17;99431.47;5081621;28;20028;-69
2022/01/15 01:55:25;;;;;;;1.20;1.00;;;;;;;-0.17;65.20;99439.84;5096088;28;20063;-70
2022/01/15 01:57:53;;;;;;;1.93;1.20;;;;;;;-0.14;65.20;99441.38;5096203;28;20299;-70
2022/01/15 02:00:22;;;;;;;1.30;1.20;;;;;;;-0.17;64.71;99444.25;5094846;28;20290;-72
2022/01/15 02:02:48;;;;;;;1.10;1.00;;;;;;;-0.17;64.52;99455.53;5094534;28;20361;-72
2022/01/15 02:05:14;;;;;;;1.17;1.07;;;;;;;-0.37;64.40;99432.78;5094547;28;20059;-69
2022/01/15 02:07:41;;;;;;;1.00;0.90;;;;;;;-0.20;65.22;99470.66;5094666;28;20701;-72
2022/01/15 02:10:12;;;;;;;1.50;1.20;;;;;;;-0.23;63.84;99468.31;5094242;28;20258;-72
2022/01/15 02:12:37;;;;;;;1.20;1.10;;;;;;;-0.20;64.28;99462.81;5094582;28;20266;-70
2022/01/15 02:15:17;;;;;;;1.20;1.10;;;;;;;-0.14;64.80;99491.09;5094274;28;20269;-71
2022/01/15 02:17:45;;;;;;;1.23;1.13;;;;;;;-0.29;63.98;99484.47;5094453;28;20036;-72
2022/01/15 02:25:46;;;;;;;1.47;1.37;;;;;;;-0.21;64.84;99513.50;5094557;28;20256;-72
2022/01/15 02:28:13;;;;;;;1.27;1.17;;;;;;;-0.21;64.65;99518.72;5076540;28;20270;-70
2022/01/15 02:30:39;;;;;;;1.27;1.17;;;;;;;-0.32;64.41;99504.69;5093717;28;20044;-74
2022/01/15 02:33:06;;;;;;;1.03;1.03;;;;;;;-0.27;63.76;99514.00;5093623;28;20280;-69
2022/01/15 02:35:32;;;;;;;1.47;1.37;;;;;;;-0.19;64.76;99535.94;5092770;28;20036;-72
2022/01/15 02:38:12;;;;;;;1.13;1.03;;;;;;;-0.21;64.73;99540.47;5092343;28;20266;-69
2022/01/15 02:40:38;;;;;;;1.53;1.33;;;;;;;-0.22;64.49;99544.06;5093483;28;20071;-68
2022/01/15 02:43:05;;;;;;;1.13;0.90;;;;;;;-0.22;64.08;99551.06;5095745;28;20282;-71
2022/01/15 02:45:34;;;;;;;0.93;0.93;;;;;;;-0.20;64.23;99559.63;5096320;28;20313;-69
2022/01/15 02:48:18;;;;;;;1.05;1.00;;;;;;;-0.33;64.25;99552.75;5076085;28;20349;-71
2022/01/15 02:50:46;;;;;;;2.20;1.10;;;;;;;-0.20;64.13;99572.72;5094198;28;20035;-72
2022/01/15 02:53:13;;;;;;;1.50;1.10;;;;;;;-0.24;64.32;99568.69;5093956;28;20258;-69
2022/01/15 02:55:47;;;;;;;1.20;1.10;;;;;;;-0.21;63.55;99584.97;5093210;28;20262;-70
2022/01/15 02:58:13;;;;;;;1.20;1.10;;;;;;;-0.31;64.00;99576.16;5092328;28;20281;-71
2022/01/15 03:00:39;;;;;;;1.70;1.10;;;;;;;-0.28;64.03;99598.66;5092517;28;20360;-71
2022/01/15 03:03:04;;;;;;;1.50;1.20;;;;;;;-0.51;65.40;99554.22;5074143;28;20362;-71
2022/01/15 03:05:30;;;;;;;1.83;1.10;;;;;;;-0.29;64.41;99607.44;5074270;28;20082;-71
2022/01/15 03:07:55;;;;;;;1.50;1.20;;;;;;;-0.34;64.64;99608.63;5091926;28;20114;-73
2022/01/15 03:10:21;;;;;;;1.27;1.17;;;;;;;-0.30;64.80;99617.06;5092369;28;20085;-72
2022/01/15 03:12:47;;;;;;;1.43;1.30;;;;;;;-0.32;64.75;99619.81;5092132;28;20036;-71
2022/01/15 03:15:18;;;;;;;1.47;1.33;;;;;;;-0.32;64.23;99617.19;5091948;28;20138;-72
2022/01/15 03:17:44;;;;;;;1.20;1.10;;;;;;;-0.31;64.46;99628.50;5092184;28;20043;-72
2022/01/15 03:20:10;;;;;;;0.90;0.90;;;;;;;-0.37;65.48;99637.66;5091697;28;20665;-70
2022/01/15 03:22:36;;;;;;;1.83;1.20;;;;;;;-0.37;64.96;99645.50;5093420;28;20064;-72
2022/01/15 03:25:02;;;;;;;1.17;1.07;;;;;;;-0.35;64.31;99655.84;5095661;28;20352;-74
2022/01/15 03:27:28;;;;;;;1.17;1.10;;;;;;;-0.38;64.68;99656.91;5095817;28;20129;-69
2022/01/15 03:29:54;;;;;;;1.30;1.20;;;;;;;-0.33;64.42;99665.25;5096066;28;20378;-73
2022/01/15 03:32:20;;;;;;;1.90;1.13;;;;;;;-0.38;64.76;99667.38;5077945;28;20495;-72
2022/01/15 03:34:46;;;;;;;2.53;2.23;;;;;;;-0.32;64.79;99677.38;5095675;28;20028;-73
2022/01/15 03:37:12;;;;;;;1.73;1.63;;;;;;;-0.31;65.46;99679.03;5095721;28;20043;-68
2022/01/15 03:39:41;;;;;;;2.80;1.70;;;;;;;-0.35;64.77;99693.31;5095080;28;20306;-71
2022/01/15 03:42:13;;;;;;;1.30;1.20;;;;;;;-0.31;64.61;99699.97;5077350;28;20296;-70
2022/01/15 03:44:45;;;;;;;1.30;1.20;;;;;;;-0.33;64.66;99701.03;5097742;28;20278;-71
2022/01/15 03:47:11;;;;;;;1.47;1.37;;;;;;;-0.34;64.53;99710.66;5097539;28;20270;-71
2022/01/15 03:49:42;;;;;;;1.30;1.10;;;;;;;-0.33;64.18;99701.03;5104843;28;20282;-71
2022/01/15 03:52:11;;;;;;;1.20;1.10;;;;;;;-0.39;64.07;99697.13;5101316;28;20301;-71
2022/01/15 03:54:37;;;;;;;1.50;1.40;;;;;;;-0.52;64.06;99692.97;5097048;28;20270;-70
2022/01/15 03:57:04;;;;;;;2.20;1.23;;;;;;;-1.00;64.09;99620.78;5095655;28;20047;-71
2022/01/15 03:59:30;;;;;;;1.27;1.17;;;;;;;-0.47;64.45;99717.81;5095686;28;20400;-70
2022/01/15 04:01:56;;;;;;;1.47;1.10;;;;;;;-0.44;64.52;99735.88;5095750;28;20757;-73
2022/01/15 04:04:22;;;;;;;1.50;1.30;;;;;;;-0.42;64.88;99744.44;5094783;28;20282;-72
2022/01/15 04:06:48;;;;;;;1.63;1.40;;;;;;;-0.37;64.57;99747.53;5094960;28;20032;-69
2022/01/15 04:09:14;;;;;;;1.20;1.10;;;;;;;-0.39;64.24;99749.44;5094846;28;20043;-71
2022/01/15 04:11:40;;;;;;;1.20;1.10;;;;;;;-0.33;64.33;99751.56;5095438;28;20032;-71
2022/01/15 04:14:06;;;;;;;2.13;1.73;;;;;;;-0.31;64.24;99762.75;5080617;28;20316;-69
2022/01/15 04:16:32;;;;;;;1.20;1.10;;;;;;;-0.28;63.80;99764.31;5060484;28;20649;-69
2022/01/15 04:18:59;;;;;;;1.60;1.17;;;;;;;-0.39;63.63;99759.91;5095025;28;20316;-69
2022/01/15 04:21:26;;;;;;;1.00;0.90;;;;;;;-0.33;63.76;99772.50;5096345;28;20263;-72
2022/01/15 04:23:53;;;;;;;1.20;1.10;;;;;;;-0.44;64.30;99764.66;5095594;28;20313;-73
2022/01/15 04:26:24;;;;;;;1.30;1.20;;;;;;;-0.43;64.24;99776.78;5094928;28;20271;-69
2022/01/15 04:28:50;;;;;;;1.30;1.20;;;;;;;-0.53;64.79;99762.75;5095201;28;20729;-72
2022/01/15 04:31:17;;;;;;;1.70;1.20;;;;;;;-0.33;64.52;99790.81;5096126;28;20305;-71
2022/01/15 04:33:42;;;;;;;1.43;1.17;;;;;;;-0.31;64.79;99794.16;5093915;28;20047;-71
2022/01/15 04:36:09;;;;;;;1.40;1.20;;;;;;;-0.27;64.79;99804.41;5095761;28;20251;-73
2022/01/15 04:38:38;;;;;;;1.47;1.20;;;;;;;-0.24;64.90;99809.41;5096340;28;20063;-71
2022/01/15 04:41:07;;;;;;;1.30;1.20;;;;;;;-0.23;64.42;99806.66;5096411;28;20339;-74
2022/01/15 04:43:32;;;;;;;1.20;1.10;;;;;;;-0.21;64.14;99810.00;5096133;28;20333;-73
2022/01/15 04:45:58;;;;;;;2.23;1.83;;;;;;;-0.32;64.55;99796.88;5095357;28;20094;-71
2022/01/15 04:48:24;;;;;;;1.50;1.30;;;;;;;-0.25;64.53;99818.19;5094864;28;20042;-74
2022/01/15 04:50:49;;;;;;;2.10;1.30;;;;;;;-0.49;64.67;99784.25;5096242;28;20035;-69
2022/01/15 04:53:15;;;;;;;2.90;1.23;;;;;;;-0.21;64.81;99830.09;5097349;28;20054;-69
2022/01/15 04:55:40;;;;;;;1.20;1.10;;;;;;;-0.19;64.34;99838.66;5103234;28;20032;-69
2022/01/15 04:58:07;;;;;;;1.30;1.20;;;;;;;-0.26;64.72;99829.63;5078047;28;20507;-67
2022/01/15 05:00:33;;;;;;;2.50;1.20;;;;;;;-0.24;62.66;99840.81;5094180;28;20036;-72
2022/01/15 05:03:24;;;;;;;1.30;1.20;;;;;;;-0.38;62.29;99834.81;5094578;28;20273;-68
2022/01/15 05:05:49;;;;;;;1.50;1.40;;;;;;;-0.47;63.12;99832.91;5095806;28;20274;-72
2022/01/15 05:08:15;;;;;;;1.23;1.13;;;;;;;-0.63;63.08;99824.50;5093985;28;20411;-72
2022/01/15 05:10:46;;;;;;;1.30;1.20;;;;;;;-0.50;63.23;99858.44;5096214;28;20036;-70
2022/01/15 05:13:14;;;;;;;1.30;1.20;;;;;;;-0.55;62.99;99852.72;5098119;28;20043;-71
2022/01/15 05:15:44;;;;;;;1.13;1.07;;;;;;;-0.47;63.36;99860.84;5100759;28;20319;-68
2022/01/15 05:18:10;;;;;;;1.10;1.00;;;;;;;-0.68;63.01;99834.50;5094085;28;20262;-71
2022/01/15 05:20:40;;;;;;;2.40;1.33;;;;;;;-0.46;63.43;99884.25;5093809;28;20266;-72
2022/01/15 05:23:06;;;;;;;3.17;1.30;;;;;;;-0.44;64.05;99873.69;5093974;28;20352;-67
2022/01/15 05:25:32;;;;;;;1.53;1.23;;;;;;;-0.44;63.84;99882.38;5093676;28;20345;-72
2022/01/15 05:27:57;;;;;;;1.37;1.20;;;;;;;-0.47;62.99;99893.06;5093469;28;20125;-72
2022/01/15 05:30:23;;;;;;;1.20;1.10;;;;;;;-0.47;63.03;99897.44;5093948;28;20172;-71
2022/01/15 05:32:48;;;;;;;1.87;1.27;;;;;;;-0.53;62.65;99897.91;5093749;28;20507;-72
2022/01/15 05:35:14;;;;;;;1.33;1.10;;;;;;;-0.58;62.87;99900.84;5093751;28;20032;-69
2022/01/15 05:37:39;;;;;;;1.53;1.40;;;;;;;-0.60;62.82;99910.56;5094177;28;20428;-70
2022/01/15 05:40:06;;;;;;;2.77;1.20;;;;;;;-0.73;63.15;99887.13;5094102;28;20105;-71
2022/01/15 05:42:32;;;;;;;1.33;1.20;;;;;;;-0.62;62.77;99909.88;5094540;28;20067;-72
2022/01/15 05:44:58;;;;;;;1.30;1.20;;;;;;;-0.52;63.00;99933.56;5094436;28;20629;-70
2022/01/15 05:47:23;;;;;;;1.50;1.10;;;;;;;-0.58;62.74;99936.63;5095773;28;20475;-72
2022/01/15 05:49:49;;;;;;;1.97;1.17;;;;;;;-0.58;63.13;99947.91;5097152;28;20035;-72
2022/01/15 05:52:15;;;;;;;2.00;1.50;;;;;;;-0.63;62.81;99943.03;5097036;28;20410;-67
2022/01/15 05:54:40;;;;;;;1.33;1.23;;;;;;;-0.75;63.20;99928.22;5096608;28;20479;-68
2022/01/15 05:57:06;;;;;;;2.07;1.50;;;;;;;-0.60;62.74;99949.81;5095122;28;20042;-72
2022/01/15 05:59:31;;;;;;;1.70;1.60;;;;;;;-0.50;63.61;99971.75;5077367;28;20032;-72
2022/01/15 06:01:57;;;;;;;1.63;1.20;;;;;;;-0.59;63.23;99963.72;5094899;28;20248;-75
2022/01/15 06:04:50;;;;;;;2.23;1.70;;;;;;;-0.45;63.57;99985.31;5094455;28;20160;-72
2022/01/15 06:07:18;;;;;;;3.23;1.37;;;;;;;-0.47;63.61;99989.84;5094492;28;20293;-73
2022/01/15 06:09:43;;;;;;;2.78;1.30;;;;;;;-0.51;63.58;99977.94;5094221;28;20347;-72
2022/01/15 06:12:09;;;;;;;1.50;1.40;;;;;;;-0.50;63.02;100003.13;5094571;28;20097;-73
2022/01/15 06:14:35;;;;;;;1.30;1.10;;;;;;;-0.56;62.77;99994.91;5094389;28;20038;-70
2022/01/15 06:17:03;;;;;;;1.40;1.30;;;;;;;-0.51;62.84;100001.47;5095243;28;20353;-71
2022/01/15 06:19:29;;;;;;;1.67;1.57;;;;;;;-0.54;63.37;99996.47;5093916;28;20032;-69
2022/01/15 06:21:56;;;;;;;1.47;1.37;;;;;;;-0.51;63.47;100011.94;5094197;28;20328;-69
2022/01/15 06:24:22;;;;;;;1.53;1.40;;;;;;;-0.61;63.75;99997.81;5076635;28;20118;-71
2022/01/15 06:26:47;;;;;;;2.43;1.40;;;;;;;-0.50;63.90;100020.63;5093758;28;20281;-70
2022/01/15 06:29:12;;;;;;;1.70;1.60;;;;;;;-0.51;63.79;100027.63;5093431;28;20036;-71
2022/01/15 06:31:38;;;;;;;5.30;2.40;;;;;;;-0.62;64.11;100009.22;5092947;28;20044;-71
2022/01/15 06:34:03;;;;;;;3.93;1.50;;;;;;;-0.50;64.08;100034.53;5093337;28;20485;-70
2022/01/15 06:36:29;;;;;;;2.87;1.70;;;;;;;-0.54;64.32;100040.09;5092467;28;20126;-69
2022/01/15 06:38:55;;;;;;;1.40;1.30;;;;;;;-0.64;62.87;100039.88;5072709;28;20056;-72
2022/01/15 06:41:21;;;;;;;1.23;1.13;;;;;;;-0.68;63.38;100051.50;5093180;28;20071;-70
2022/01/15 06:43:46;;;;;;;1.73;1.40;;;;;;;-0.77;63.18;100052.19;5092548;28;20077;-69
2022/01/15 06:46:12;;;;;;;2.20;1.43;;;;;;;-0.74;63.98;100046.72;5092654;28;20094;-70
2022/01/15 06:48:38;;;;;;;2.03;1.40;;;;;;;-0.77;63.48;100057.41;5097566;28;20040;-70
2022/01/15 06:51:04;;;;;;;2.03;1.83;;;;;;;-0.82;63.73;100073.41;5078103;28;20032;-69
2022/01/15 06:53:30;;;;;;;1.50;1.40;;;;;;;-0.78;64.35;100081.88;5092786;28;20745;-71
2022/01/15 06:55:56;;;;;;;1.70;1.60;;;;;;;-0.80;64.37;100078.53;5092151;28;20348;-69
2022/01/15 06:58:24;;;;;;;1.37;1.27;;;;;;;-0.77;64.39;100073.09;5101534;28;20509;-71
2022/01/15 07:00:50;;;;;;;1.60;1.50;;;;;;;-0.73;64.37;100075.38;5099615;28;20689;-69
2022/01/15 07:03:16;;;;;;;1.90;1.40;;;;;;;-0.74;64.04;100080.72;5103120;28;20362;-71
2022/01/15 07:05:42;;;;;;;4.93;1.53;;;;;;;-0.72;64.58;100090.13;5101379;28;20278;-71
2022/01/15 07:08:09;;;;;;;1.70;1.60;;;;;;;-0.69;64.08;100092.53;5082991;28;20051;-74
2022/01/15 07:10:37;;;;;;;4.53;1.63;;;;;;;-0.73;64.82;100085.00;5099261;28;20082;-73
2022/01/15 07:13:02;;;;;;;2.55;1.52;;;;;;;-0.62;64.04;100103.38;5101952;28;20270;-77
2022/01/15 07:15:28;;;;;;;1.60;1.43;;;;;;;-0.63;64.20;100112.16;5102928;28;20043;-76
2022/01/15 07:17:53;;;;;;;1.50;1.40;;;;;;;-0.74;63.93;100089.41;5102445;28;20032;-75
2022/01/15 07:20:22;;;;;;;1.43;1.30;;;;;;;-0.71;64.11;100104.03;5065549;28;20036;-74
2022/01/15 07:22:48;;;;;;;3.08;1.92;;;;;;;-0.70;64.53;100116.16;5108553;28;20085;-73
2022/01/15 07:25:16;;;;;;;1.40;1.30;;;;;;;-0.62;64.35;100135.59;5105332;28;20075;-74
2022/01/15 07:27:46;;;;;;;1.23;1.13;;;;;;;-0.70;63.84;100122.22;5084610;28;20036;-75
2022/01/15 07:30:15;;;;;;;1.93;1.80;;;;;;;-0.72;64.97;100133.75;5101679;28;20450;-73
2022/01/15 07:32:41;;;;;;;1.50;1.40;;;;;;;-0.78;64.54;100128.94;5099578;28;20289;-74
2022/01/15 07:35:08;;;;;;;3.90;1.80;;;;;;;-0.68;64.77;100137.81;5097699;28;20263;-74
2022/01/15 07:37:35;;;;;;;2.13;1.53;;;;;;;-0.68;64.55;100140.41;5099498;28;20270;-71
2022/01/15 07:40:01;;;;;;;1.90;1.70;;;;;;;-0.63;65.51;100146.16;5061397;28;20290;-72
2022/01/15 07:42:35;;;;;;;1.58;1.48;;;;;;;-0.60;65.50;100152.97;5078173;28;20278;-73
2022/01/15 07:45:07;;;;;;;1.83;1.50;;;;;;;-0.67;65.04;100142.94;5078573;28;20068;-71
2022/01/15 07:47:32;;;;;;;1.83;1.70;;;;;;;-0.66;65.14;100157.69;5077333;28;20335;-73
2022/01/15 07:49:58;;;;;;;2.27;2.07;;;;;;;-0.73;65.53;100148.59;5076426;28;20825;-72
2022/01/15 07:52:25;;;;;;;3.17;1.87;;;;;;;-0.70;65.32;100169.28;5078176;28;20127;-71
2022/01/15 07:54:51;;;;;;;3.20;1.60;;;;;;;-0.71;65.37;100166.78;5078249;28;20270;-72
2022/01/15 07:57:20;;;;;;;2.33;2.00;;;;;;;-0.63;65.42;100201.09;5078388;28;20263;-70
2022/01/15 07:59:48;;;;;;;5.95;1.60;;;;;;;-0.70;65.74;100190.22;5077671;28;20278;-73
2022/01/15 08:02:13;;;;;;;2.30;1.80;;;;;;;-0.63;65.61;100206.31;5079238;28;20042;-73
2022/01/15 08:04:40;;;;;;;3.93;1.70;;;;;;;-0.86;65.51;100171.31;5079594;28;20056;-72
2022/01/15 08:07:05;;;;;;;2.43;2.07;;;;;;;-0.69;66.10;100202.34;5062187;28;20032;-73
2022/01/15 08:09:31;;;;;;;3.23;1.50;;;;;;;-0.68;66.50;100205.78;5060972;28;20297;-73
2022/01/15 08:12:01;;;;;;;1.97;1.77;;;;;;;-0.67;65.75;100220.53;5077600;28;20426;-74
2022/01/15 08:14:26;;;;;;;3.67;1.80;;;;;;;-0.68;66.02;100218.88;5076865;28;20039;-73
2022/01/15 08:16:52;;;;;;;6.50;2.00;;;;;;;-0.65;66.43;100219.50;5078169;28;20267;-75
2022/01/15 08:19:18;;;;;;;9.67;6.23;;;;;;;-0.72;66.36;100213.03;5079480;28;20060;-78
2022/01/15 08:21:44;;;;;;;5.97;2.00;;;;;;;-0.73;66.84;100216.56;5079586;28;20067;-73
2022/01/15 08:24:10;;;;;;;2.10;1.90;;;;;;;-0.79;66.83;100227.47;5079325;28;20040;-74
2022/01/15 08:26:36;;;;;;;2.27;2.07;;;;;;;-0.79;66.75;100221.38;5080254;28;20040;-75
2022/01/15 08:29:02;;;;;;;1.87;1.70;;;;;;;-1.03;67.46;100195.13;5062405;28;20838;-72
2022/01/15 08:31:28;;;;;;;1.60;1.50;;;;;;;-1.01;67.38;100203.69;5080351;28;20321;-74
2022/01/15 08:33:53;;;;;;;3.13;2.00;;;;;;;-0.97;67.71;100197.31;5078540;28;20267;-72
2022/01/15 08:36:20;;;;;;;2.50;1.90;;;;;;;-0.90;67.31;100216.84;5079225;28;20067;-72
2022/01/15 08:38:47;;;;;;;2.53;2.00;;;;;;;-0.83;68.22;100235.59;5077297;28;20036;-71
2022/01/15 08:41:15;;;;;;;3.03;2.13;;;;;;;-0.81;67.63;100238.97;5076448;28;20279;-71
2022/01/15 08:43:44;;;;;;;3.08;1.85;;;;;;;-0.76;67.46;100235.09;5078310;28;20310;-70
2022/01/15 08:46:11;;;;;;;6.05;1.92;;;;;;;-0.72;67.65;100235.72;5076518;28;20028;-71
2022/01/15 08:48:37;;;;;;;1.83;1.70;;;;;;;-0.70;67.92;100234.66;5094326;28;20040;-70
2022/01/15 08:51:02;;;;;;;5.83;2.33;;;;;;;-0.67;68.57;100241.47;5078561;28;20302;-73
2022/01/15 08:53:29;;;;;;;3.80;1.70;;;;;;;-0.81;68.26;100244.19;5059908;28;20036;-74
2022/01/15 08:55:55;;;;;;;6.43;2.50;;;;;;;-0.94;69.07;100242.38;5078663;28;20031;-71
2022/01/15 08:58:23;;;;;;;2.77;1.67;;;;;;;-0.90;69.64;100250.00;5078184;28;20306;-70
2022/01/15 09:00:49;;;;;;;3.35;1.52;;;;;;;-1.04;69.49;100243.94;5078086;28;20453;-71
2022/01/15 09:03:15;;;;;;;2.07;1.87;;;;;;;-1.08;69.81;100234.63;5075195;28;20052;-71
2022/01/15 09:05:40;;;;;;;5.63;2.73;;;;;;;-1.09;70.35;100239.94;5073945;28;20084;-73
2022/01/15 09:08:08;;;;;;;3.67;2.13;;;;;;;-1.22;70.35;100247.75;5088742;28;20377;-73
2022/01/15 09:10:41;;;;;;;4.67;1.97;;;;;;;-1.21;70.44;100236.34;5073111;28;20482;-69
2022/01/15 09:13:08;;;;;;;6.93;1.97;;;;;;;-1.15;70.79;100258.66;5073511;28;20353;-71
2022/01/15 09:15:34;;;;;;;3.60;1.80;;;;;;;-1.15;70.69;100256.88;5073135;28;20319;-70
2022/01/15 09:17:59;;;;;;;1.90;1.60;;;;;;;-1.16;70.95;100249.94;5055013;28;20127;-71
2022/01/15 09:20:25;;;;;;;2.70;2.10;;;;;;;-1.10;71.06;100254.78;5072247;28;20399;-70
2022/01/15 09:22:50;;;;;;;3.67;2.43;;;;;;;-1.08;70.31;100263.38;5072777;28;20395;-74
2022/01/15 09:25:16;;;;;;;2.30;2.10;;;;;;;-1.24;70.36;100236.56;5072550;28;20153;-70
2022/01/15 09:30:27;;;;;;;3.03;2.10;;;;;;;-1.09;71.26;100273.94;5074130;28;20029;-70
2022/01/15 09:32:55;;;;;;;2.93;1.73;;;;;;;-1.04;71.29;100280.53;5077134;28;20749;-70
2022/01/15 09:35:28;;;;;;;8.32;2.08;;;;;;;-0.99;71.00;100272.38;5075216;28;20267;-72
2022/01/15 09:37:55;;;;;;;4.60;1.70;;;;;;;-0.91;71.21;100280.53;5075789;28;20507;-71
2022/01/15 09:40:25;;;;;;;2.20;2.00;;;;;;;-0.95;70.80;100272.06;5089940;28;20282;-70
2022/01/15 09:43:01;;;;;;;2.10;1.63;;;;;;;-0.91;70.92;100279.69;5097511;28;20288;-70
2022/01/15 09:45:34;;;;;;;2.07;1.70;;;;;;;-0.88;70.98;100280.34;5097116;28;20292;-71
2022/01/15 09:48:03;;;;;;;1.80;1.70;;;;;;;-0.81;70.94;100280.78;5096371;28;20266;-70
2022/01/15 09:50:36;;;;;;;;;;;;;;;-0.77;70.48;100290.09;5098120;28;20799;-68
2022/01/15 09:53:03;;;;;;;4.20;1.73;;;;;;;-0.77;71.26;100292.72;5077680;28;20044;-70
2022/01/15 09:55:29;;;;;;;4.07;1.90;;;;;;;-0.72;71.46;100290.63;5094333;28;20800;-68
2022/01/15 09:57:55;;;;;;;2.47;1.83;;;;;;;-0.68;70.87;100294.72;5095412;28;20289;-73
2022/01/15 10:00:23;;;;;;;2.17;1.90;;;;;;;-0.73;71.33;100297.63;5096878;28;20039;-70
2022/01/15 10:02:51;;;;;;;3.13;1.90;;;;;;;-0.76;71.52;100303.06;5096604;28;20795;-73
2022/01/15 10:05:17;;;;;;;2.13;1.90;;;;;;;-0.81;71.18;100299.09;5098203;28;20269;-72
2022/01/15 10:08:04;;;;;;;4.87;2.10;;;;;;;-0.81;71.62;100291.25;5097648;28;20101;-71
2022/01/15 10:10:33;;;;;;;3.33;1.80;;;;;;;-0.63;71.49;100308.31;5097358;28;20278;-72
2022/01/15 10:13:16;;;;;;;4.90;1.77;;;;;;;-0.60;70.94;100305.47;5095618;28;20377;-69
2022/01/15 10:15:55;;;;;;;1.90;1.80;;;;;;;-0.67;71.10;100306.84;5096165;28;20016;-71
2022/01/15 10:18:25;;;;;;;;;;;;;;;-0.55;70.75;100320.91;5098072;28;20399;-73
2022/01/15 10:20:55;;;;;;;5.67;2.67;;;;;;;-0.63;71.23;100326.63;5096244;28;20007;-70
2022/01/15 10:23:27;;;;;;;2.27;2.07;;;;;;;-0.62;71.22;100333.53;5096419;28;20265;-68
2022/01/15 10:26:22;;;;;;;3.20;2.70;;;;;;;-0.57;71.03;100321.00;5095773;28;20301;-69
2022/01/15 10:29:03;;;;;;;4.68;2.33;;;;;;;-0.52;71.05;100334.59;5099010;28;20274;-73
2022/01/15 10:31:37;;;;;;;3.60;2.03;;;;;;;-0.67;71.16;100312.91;5095788;28;20028;-71
2022/01/15 10:34:31;;;;;;;4.73;2.67;;;;;;;-0.59;71.42;100322.00;5100462;28;20274;-73
2022/01/15 10:37:12;;;;;;;3.27;2.07;;;;;;;-0.64;71.36;100322.31;5100820;28;20266;-72
2022/01/15 10:39:44;;;;;;;2.37;2.10;;;;;;;-0.69;71.46;100309.56;5083382;28;20330;-73
2022/01/15 10:42:15;;;;;;;5.80;1.90;;;;;;;-0.61;71.18;100322.13;5105417;28;20289;-72
2022/01/15 10:44:42;;;;;;;2.80;2.20;;;;;;;-0.61;71.37;100335.19;5099339;28;20266;-69
2022/01/15 10:47:19;;;;;;;3.30;2.33;;;;;;;-0.54;71.21;100353.97;5100595;28;20353;-74
2022/01/15 10:49:58;;;;;;;3.10;1.90;;;;;;;-0.56;71.15;100351.44;5108194;28;20612;-70
2022/01/15 10:52:26;;;;;;;3.50;1.83;;;;;;;-0.76;71.51;100302.22;5108041;28;20345;-69
2022/01/15 10:55:08;;;;;;;2.28;2.08;;;;;;;-0.49;71.29;100330.94;5090402;28;20349;-69
2022/01/15 10:57:37;;;;;;;2.93;1.80;;;;;;;-0.46;71.10;100349.03;5104687;28;20046;-70
2022/01/15 11:00:20;;;;;;;3.40;2.63;;;;;;;-0.36;71.58;100357.94;5100600;28;20273;-71
2022/01/15 11:02:53;;;;;;;5.43;3.33;;;;;;;-0.39;71.05;100353.75;5098816;28;20055;-71
2022/01/15 11:05:46;;;;;;;4.50;2.73;;;;;;;-0.50;71.37;100348.41;5098706;28;20355;-72
2022/01/15 11:08:18;;;;;;;8.27;4.03;;;;;;;-0.44;70.94;100366.31;5075448;28;20266;-74
2022/01/15 11:10:50;;;;;;;3.30;2.00;;;;;;;-0.45;70.98;100362.03;5099562;28;20377;-74
2022/01/15 11:13:19;;;;;;;2.50;2.30;;;;;;;-0.35;71.33;100362.25;5099663;28;20776;-73
2022/01/15 11:15:50;;;;;;;1.80;1.70;;;;;;;-0.34;71.10;100372.59;5098847;28;20258;-70
2022/01/15 11:18:27;;;;;;;2.20;2.00;;;;;;;-0.39;70.96;100360.78;5100180;28;20266;-71
2022/01/15 11:20:59;;;;;;;2.20;2.00;;;;;;;-0.36;71.45;100366.63;5099849;28;20266;-74
2022/01/15 11:23:28;;;;;;;3.07;2.40;;;;;;;-0.43;71.68;100364.53;5099976;28;20257;-70
2022/01/15 11:25:56;;;;;;;3.08;2.05;;;;;;;-0.41;71.29;100378.34;5100527;28;20262;-71
2022/01/15 11:28:23;;;;;;;2.05;1.77;;;;;;;-0.47;71.37;100379.59;5100388;28;20074;-73
2022/01/15 11:30:54;;;;;;;3.87;2.00;;;;;;;-0.45;71.49;100372.47;5099594;28;20036;-71
2022/01/15 11:33:24;;;;;;;4.40;3.07;;;;;;;-0.36;71.09;100382.34;5081869;28;20270;-70
2022/01/15 11:35:56;;;;;;;3.90;2.70;;;;;;;-0.32;71.53;100377.72;5081205;28;20380;-71
2022/01/15 11:38:41;;;;;;;3.20;2.57;;;;;;;-0.21;71.21;100393.56;5080953;28;20326;-72
2022/01/15 11:41:32;;;;;;;3.00;2.00;;;;;;;-0.22;70.83;100396.28;5099926;28;20633;-74
2022/01/15 11:44:17;;;;;;;3.30;2.40;;;;;;;-0.25;71.41;100383.41;5064122;28;20294;-73
2022/01/15 11:46:57;;;;;;;2.23;1.80;;;;;;;-0.29;70.81;100372.28;5081271;28;20776;-71
2022/01/15 11:49:31;;;;;;;2.17;1.83;;;;;;;-0.27;71.17;100388.75;5100359;28;20347;-73
2022/01/15 11:52:08;;;;;;;2.40;1.87;;;;;;;-0.25;71.79;100388.66;5099476;28;20290;-72
2022/01/15 11:55:07;;;;;;;2.03;1.70;;;;;;;-0.28;70.71;100379.22;5100189;28;20274;-72
2022/01/15 11:57:36;;;;;;;2.72;1.80;;;;;;;-0.24;71.02;100392.94;5100656;28;20266;-70
2022/01/15 12:00:16;;;;;;;2.83;2.50;;;;;;;-0.31;71.54;100395.09;5100254;28;20491;-70